Time;durP1;ratioP1;P1;durP2;ratioP2;P2;SDS_P1;SDS_P2;PMS_P1;PMS_P2;Temp;Humidity;BMP_temperature;BMP_pressure;BME280_temperature;BME280_humidity;BME280_pressure;Samples;Min_cycle;Max_cycle;Signal;HPM_P1;HPM_P2
2020/12/15 00:01:58;;;;;;;20.30;18.53;;;4.70;99.90;;;;;;4989441;28;20525;-82
2020/12/15 00:04:26;;;;;;;21.87;19.70;;;4.70;99.90;;;;;;4991341;28;20446;-82
2020/12/15 00:06:53;;;;;;;21.43;19.63;;;4.70;99.90;;;;;;4972360;28;20501;-81
2020/12/15 00:09:19;;;;;;;20.60;18.77;;;4.70;99.90;;;;;;4975541;28;20977;-81
2020/12/15 00:11:45;;;;;;;20.00;18.40;;;4.70;99.90;;;;;;4992072;28;20453;-82
2020/12/15 00:14:12;;;;;;;19.57;17.97;;;4.70;99.90;;;;;;4991588;28;20511;-82
2020/12/15 00:16:38;;;;;;;20.13;18.43;;;4.80;99.90;;;;;;4975523;28;20449;-82
2020/12/15 00:19:05;;;;;;;20.90;18.90;;;4.70;99.90;;;;;;4979287;28;20476;-82
2020/12/15 00:21:32;;;;;;;20.80;18.90;;;4.80;99.90;;;;;;4983381;28;20519;-82
2020/12/15 00:23:58;;;;;;;20.20;18.40;;;4.80;99.90;;;;;;4975437;28;20457;-82
2020/12/15 00:26:25;;;;;;;19.30;17.70;;;4.80;99.90;;;;;;4972192;28;20442;-82
2020/12/15 00:28:51;;;;;;;20.20;18.33;;;4.80;99.90;;;;;;4997634;23;20506;-78
2020/12/15 00:31:19;;;;;;;20.47;18.67;;;4.80;99.90;;;;;;5025423;28;20447;-77
2020/12/15 00:33:46;;;;;;;19.97;18.13;;;4.80;99.90;;;;;;5025319;28;20454;-78
2020/12/15 00:36:17;;;;;;;19.20;17.63;;;4.80;99.90;;;;;;5047109;28;20447;-78
2020/12/15 00:38:45;;;;;;;19.80;17.93;;;4.80;99.90;;;;;;5027841;28;20455;-77
2020/12/15 00:41:11;;;;;;;19.60;17.83;;;4.80;99.90;;;;;;5017807;28;20477;-77
2020/12/15 00:43:38;;;;;;;18.80;17.23;;;4.80;99.90;;;;;;5007717;28;20443;-76
2020/12/15 00:46:04;;;;;;;17.73;16.13;;;4.80;99.90;;;;;;5023128;28;20435;-79
2020/12/15 00:48:30;;;;;;;18.87;17.13;;;4.70;99.90;;;;;;5016468;28;20513;-77
2020/12/15 00:50:57;;;;;;;18.57;16.97;;;4.80;99.90;;;;;;5006333;28;20506;-77
2020/12/15 00:53:23;;;;;;;18.67;17.17;;;4.80;99.90;;;;;;5019341;28;20442;-78
2020/12/15 00:55:50;;;;;;;18.80;17.20;;;4.80;99.90;;;;;;5019443;28;20462;-78
2020/12/15 00:58:17;;;;;;;20.10;18.40;;;4.80;99.90;;;;;;5019606;28;20431;-79
2020/12/15 01:00:43;;;;;;;18.53;17.03;;;4.80;99.90;;;;;;5016814;28;20474;-78
2020/12/15 01:03:09;;;;;;;18.97;17.10;;;4.80;99.90;;;;;;5016790;28;20436;-77
2020/12/15 01:05:36;;;;;;;18.77;17.07;;;4.90;99.90;;;;;;5015834;28;20790;-78
2020/12/15 01:08:04;;;;;;;17.10;15.73;;;4.90;99.90;;;;;;5017602;28;20446;-78
2020/12/15 01:10:30;;;;;;;19.57;17.47;;;4.80;99.90;;;;;;5021023;28;20493;-78
2020/12/15 01:12:58;;;;;;;18.13;16.63;;;4.80;99.90;;;;;;5021891;28;20434;-77
2020/12/15 01:15:24;;;;;;;19.23;17.43;;;4.80;99.90;;;;;;5017765;28;20835;-78
2020/12/15 01:17:52;;;;;;;18.07;16.60;;;4.80;99.90;;;;;;5016712;28;20446;-78
2020/12/15 01:20:25;;;;;;;17.60;16.20;;;4.80;99.90;;;;;;5013899;28;20470;-78
2020/12/15 01:22:53;;;;;;;18.13;16.63;;;4.90;99.90;;;;;;5018886;28;21172;-78
2020/12/15 01:25:28;;;;;;;18.17;16.67;;;4.90;99.90;;;;;;5017228;28;20450;-77
2020/12/15 01:27:59;;;;;;;19.70;17.90;;;4.90;99.90;;;;;;5021746;28;20450;-78
2020/12/15 01:30:26;;;;;;;18.30;16.80;;;4.90;99.90;;;;;;5016308;28;20482;-77
2020/12/15 01:33:11;;;;;;;19.17;17.53;;;4.90;99.90;;;;;;5019316;28;20441;-79
2020/12/15 01:36:00;;;;;;;18.33;16.77;;;4.90;99.90;;;;;;5019720;28;20512;-78
2020/12/15 01:38:47;;;;;;;19.13;17.40;;;4.90;99.90;;;;;;5013655;28;20902;-78
2020/12/15 01:41:15;;;;;;;19.77;17.90;;;4.90;99.90;;;;;;5014306;28;20444;-78
2020/12/15 01:43:52;;;;;;;18.13;16.53;;;4.90;99.90;;;;;;5016734;28;20517;-77
2020/12/15 01:46:22;;;;;;;18.93;17.27;;;4.90;99.90;;;;;;5016108;28;20493;-79
2020/12/15 01:48:49;;;;;;;18.43;16.63;;;4.90;99.90;;;;;;5020315;28;20477;-77
2020/12/15 01:51:16;;;;;;;19.73;17.77;;;4.90;99.90;;;;;;5022674;28;20479;-77
2020/12/15 01:53:44;;;;;;;18.33;16.63;;;4.90;99.90;;;;;;5024805;28;20878;-77
2020/12/15 01:56:10;;;;;;;17.33;15.93;;;4.90;99.90;;;;;;5019021;28;20482;-78
2020/12/15 01:58:39;;;;;;;18.53;16.93;;;4.90;99.90;;;;;;5021466;28;20455;-77
2020/12/15 02:01:12;;;;;;;17.77;16.20;;;4.90;99.90;;;;;;5016855;28;20439;-77
2020/12/15 02:03:41;;;;;;;18.47;16.77;;;5.00;99.90;;;;;;5016786;28;20443;-77
2020/12/15 02:06:33;;;;;;;18.77;17.27;;;5.00;99.90;;;;;;5015105;28;20569;-77
2020/12/15 02:09:07;;;;;;;18.80;17.10;;;5.00;99.90;;;;;;5013553;28;20975;-77
2020/12/15 02:11:36;;;;;;;18.70;17.00;;;4.90;99.90;;;;;;5018869;28;20443;-77
2020/12/15 02:14:03;;;;;;;18.87;17.17;;;5.00;99.90;;;;;;5018767;28;20451;-77
2020/12/15 02:16:31;;;;;;;18.07;16.47;;;5.00;99.90;;;;;;5019823;28;20471;-77
2020/12/15 02:18:58;;;;;;;17.00;15.70;;;5.00;99.90;;;;;;5015829;28;20478;-77
2020/12/15 02:21:31;;;;;;;17.93;16.40;;;5.00;99.90;;;;;;5017083;28;20444;-77
2020/12/15 02:24:02;;;;;;;18.27;16.77;;;5.00;99.90;;;;;;5017652;28;20473;-77
2020/12/15 02:26:50;;;;;;;18.73;16.93;;;5.00;99.90;;;;;;5010802;28;20542;-77
2020/12/15 02:29:18;;;;;;;17.90;16.40;;;5.10;99.90;;;;;;5013383;28;21011;-77
2020/12/15 02:31:45;;;;;;;17.73;16.17;;;5.00;99.90;;;;;;5017973;28;20452;-77
2020/12/15 02:34:11;;;;;;;16.27;14.87;;;5.00;99.90;;;;;;5015058;28;20837;-77
2020/12/15 02:36:38;;;;;;;17.07;15.60;;;5.00;99.90;;;;;;5016051;28;20506;-77
2020/12/15 02:39:16;;;;;;;16.93;15.53;;;5.10;99.90;;;;;;5015960;28;20504;-77
2020/12/15 02:41:52;;;;;;;18.47;16.77;;;5.10;99.90;;;;;;5015069;28;20430;-77
2020/12/15 02:44:19;;;;;;;17.60;16.03;;;5.00;99.90;;;;;;5012618;28;20232;-76
2020/12/15 02:46:53;;;;;;;17.03;15.57;;;5.00;99.90;;;;;;5007171;28;20534;-77
2020/12/15 02:49:21;;;;;;;18.03;16.53;;;5.00;99.90;;;;;;5017060;28;20470;-77
2020/12/15 02:51:49;;;;;;;18.43;16.93;;;5.00;99.90;;;;;;5018429;28;20454;-77
2020/12/15 02:54:38;;;;;;;18.00;16.30;;;5.10;99.90;;;;;;5012117;28;20208;-77
2020/12/15 02:57:04;;;;;;;16.43;15.13;;;5.10;99.90;;;;;;5018975;28;20446;-77
2020/12/15 02:59:32;;;;;;;17.23;15.87;;;5.10;99.90;;;;;;5014817;28;20478;-77
2020/12/15 03:02:00;;;;;;;17.13;15.80;;;5.10;99.90;;;;;;5014891;28;20229;-77
2020/12/15 03:04:26;;;;;;;17.20;15.90;;;5.10;99.90;;;;;;5011356;28;20442;-77
2020/12/15 03:06:53;;;;;;;17.87;16.20;;;5.10;99.90;;;;;;5015352;28;20449;-77
2020/12/15 03:09:30;;;;;;;17.23;15.83;;;5.10;99.90;;;;;;5005911;28;20234;-78
2020/12/15 03:12:00;;;;;;;17.53;16.03;;;5.10;99.90;;;;;;5021912;28;20954;-78
2020/12/15 03:14:35;;;;;;;17.33;15.93;;;5.20;99.90;;;;;;5007955;28;20590;-78
2020/12/15 03:17:04;;;;;;;16.47;15.27;;;5.20;99.90;;;;;;5020660;28;20200;-78
2020/12/15 03:19:31;;;;;;;17.10;15.70;;;5.10;99.90;;;;;;5013558;28;20474;-77
2020/12/15 03:21:59;;;;;;;17.50;16.00;;;5.10;99.90;;;;;;5019155;28;20545;-76
2020/12/15 03:24:28;;;;;;;17.00;15.63;;;5.10;99.90;;;;;;5029258;28;20451;-77
2020/12/15 03:26:55;;;;;;;17.67;16.17;;;5.20;99.90;;;;;;5015495;28;20445;-77
2020/12/15 03:29:23;;;;;;;18.03;16.63;;;5.20;99.90;;;;;;5015764;28;20485;-77
2020/12/15 03:31:51;;;;;;;16.47;15.13;;;5.20;99.90;;;;;;5015528;28;20590;-77
2020/12/15 03:34:24;;;;;;;17.07;15.70;;;5.20;99.90;;;;;;5017414;28;20455;-78
2020/12/15 03:36:51;;;;;;;17.20;15.80;;;5.20;99.90;;;;;;5022973;28;20976;-78
2020/12/15 03:39:18;;;;;;;17.43;15.93;;;5.20;99.90;;;;;;5017520;28;20513;-77
2020/12/15 03:41:46;;;;;;;18.00;16.50;;;5.20;99.90;;;;;;5013898;28;20448;-77
2020/12/15 03:44:17;;;;;;;16.30;14.90;;;5.30;99.90;;;;;;5013116;28;20824;-78
2020/12/15 03:46:55;;;;;;;17.67;16.13;;;5.30;99.90;;;;;;5013140;28;20447;-78
2020/12/15 03:49:22;;;;;;;16.90;15.40;;;5.20;99.90;;;;;;5012799;28;20216;-77
2020/12/15 03:51:53;;;;;;;17.33;15.93;;;5.30;99.90;;;;;;5013795;28;20201;-78
2020/12/15 03:54:22;;;;;;;16.73;15.40;;;5.20;99.90;;;;;;5025326;28;20204;-79
2020/12/15 03:57:08;;;;;;;16.53;15.23;;;5.20;99.90;;;;;;5017270;28;20440;-78
2020/12/15 03:59:45;;;;;;;17.77;16.17;;;5.20;99.90;;;;;;5013902;28;20521;-79
2020/12/15 04:02:13;;;;;;;16.17;14.97;;;5.10;99.90;;;;;;5016218;28;20196;-79
2020/12/15 04:04:39;;;;;;;17.73;15.97;;;5.10;99.90;;;;;;5015954;28;20456;-80
2020/12/15 04:07:06;;;;;;;17.83;16.23;;;5.10;99.90;;;;;;5019004;28;20447;-77
2020/12/15 04:09:39;;;;;;;17.17;15.87;;;5.10;99.90;;;;;;5008963;28;20466;-79
2020/12/15 04:12:06;;;;;;;17.97;16.47;;;5.10;99.90;;;;;;5016728;28;20442;-80
2020/12/15 04:14:32;;;;;;;18.37;16.57;;;5.00;99.90;;;;;;5005442;28;20509;-80
2020/12/15 04:16:59;;;;;;;17.03;15.60;;;5.00;99.90;;;;;;5017338;28;20534;-80
2020/12/15 04:19:26;;;;;;;17.53;16.13;;;5.00;99.90;;;;;;5017050;28;20460;-80
2020/12/15 04:21:52;;;;;;;18.23;16.63;;;5.00;99.90;;;;;;5018098;28;20447;-77
2020/12/15 04:24:28;;;;;;;17.63;16.13;;;5.00;99.90;;;;;;5015650;28;20208;-80
2020/12/15 04:26:59;;;;;;;16.90;15.70;;;5.00;99.90;;;;;;5018405;28;20447;-77
2020/12/15 04:29:27;;;;;;;17.63;16.17;;;5.00;99.90;;;;;;5021006;28;20530;-78
2020/12/15 04:31:59;;;;;;;18.47;16.97;;;5.00;99.90;;;;;;5012310;28;20855;-77
2020/12/15 04:34:28;;;;;;;16.70;15.30;;;5.10;99.90;;;;;;5014461;28;21025;-78
2020/12/15 04:36:57;;;;;;;17.43;15.93;;;5.10;99.90;;;;;;5016545;28;20447;-77
2020/12/15 04:39:32;;;;;;;19.23;17.33;;;5.00;99.90;;;;;;5017646;28;20929;-74
2020/12/15 04:41:59;;;;;;;18.87;17.27;;;5.00;99.90;;;;;;5018620;28;20454;-78
2020/12/15 04:44:25;;;;;;;19.70;17.70;;;5.10;99.90;;;;;;5013603;28;21031;-77
2020/12/15 04:47:06;;;;;;;18.37;16.87;;;5.10;99.90;;;;;;5006246;28;20452;-76
2020/12/15 04:49:51;;;;;;;18.37;16.67;;;5.10;99.90;;;;;;5004026;28;20867;-78
2020/12/15 04:52:23;;;;;;;18.77;16.90;;;5.10;99.90;;;;;;5021275;28;20476;-78
2020/12/15 04:55:00;;;;;;;17.37;15.77;;;5.10;99.90;;;;;;5020496;28;20224;-77
2020/12/15 04:57:38;;;;;;;17.33;15.87;;;5.10;99.90;;;;;;5019887;28;20453;-77
2020/12/15 05:00:06;;;;;;;16.83;15.53;;;5.10;99.90;;;;;;5019268;28;21056;-76
2020/12/15 05:02:49;;;;;;;17.03;15.63;;;5.10;99.90;;;;;;5015516;28;20490;-77
2020/12/15 05:05:17;;;;;;;17.50;16.00;;;5.00;99.90;;;;;;5015929;28;20832;-77
2020/12/15 05:07:46;;;;;;;17.73;16.13;;;5.00;99.90;;;;;;5017221;28;20489;-77
2020/12/15 05:10:24;;;;;;;17.37;15.80;;;5.00;99.90;;;;;;5015594;28;20479;-76
2020/12/15 05:13:12;;;;;;;16.83;15.37;;;5.00;99.90;;;;;;5013171;28;20288;-76
2020/12/15 05:15:39;;;;;;;16.50;15.27;;;4.90;99.90;;;;;;5020698;28;20447;-77
2020/12/15 05:18:25;;;;;;;16.83;15.43;;;5.00;99.90;;;;;;5024258;28;20468;-77
2020/12/15 05:20:55;;;;;;;17.67;16.10;;;5.00;99.90;;;;;;5023961;28;20443;-77
2020/12/15 05:23:26;;;;;;;17.27;15.87;;;5.00;99.90;;;;;;5015824;28;20479;-77
2020/12/15 05:26:02;;;;;;;16.53;15.07;;;5.10;99.90;;;;;;5016647;28;20502;-78
2020/12/15 05:28:32;;;;;;;16.10;14.80;;;5.10;99.90;;;;;;5012289;28;20459;-77
2020/12/15 05:31:02;;;;;;;16.57;15.17;;;5.10;99.90;;;;;;5020980;28;20573;-78
2020/12/15 05:33:37;;;;;;;15.50;14.30;;;5.10;99.90;;;;;;5013599;28;20440;-78
2020/12/15 05:36:23;;;;;;;15.87;14.57;;;5.10;99.90;;;;;;5017055;28;20831;-77
2020/12/15 05:39:26;;;;;;;16.10;14.70;;;5.10;99.90;;;;;;5018287;28;20465;-79
2020/12/15 05:42:02;;;;;;;16.07;14.90;;;5.10;99.90;;;;;;5017883;28;20489;-81
2020/12/15 05:44:29;;;;;;;16.40;15.03;;;5.10;99.90;;;;;;5007693;28;20963;-80
2020/12/15 05:47:03;;;;;;;16.60;15.30;;;5.10;99.90;;;;;;5016092;28;20451;-79
2020/12/15 05:49:32;;;;;;;17.83;16.23;;;5.20;99.90;;;;;;5016417;28;20255;-78
2020/12/15 05:52:00;;;;;;;17.87;16.27;;;5.10;99.90;;;;;;5016759;28;20447;-78
2020/12/15 05:54:27;;;;;;;18.03;16.43;;;5.10;99.90;;;;;;5019019;28;20439;-79
2020/12/15 05:57:01;;;;;;;18.87;17.13;;;5.20;99.90;;;;;;5021373;28;20200;-78
2020/12/15 05:59:28;;;;;;;17.40;15.90;;;5.20;99.90;;;;;;5010092;28;20946;-80
2020/12/15 06:02:02;;;;;;;18.27;16.67;;;5.20;99.90;;;;;;5020226;28;20668;-80
2020/12/15 06:04:29;;;;;;;17.17;15.77;;;5.20;99.90;;;;;;5021262;28;20452;-82
2020/12/15 06:06:56;;;;;;;17.93;16.37;;;5.30;99.90;;;;;;5026931;28;20460;-81
2020/12/15 06:09:23;;;;;;;17.63;16.10;;;5.30;99.90;;;;;;5025362;28;20471;-80
2020/12/15 06:11:49;;;;;;;16.97;15.53;;;5.30;99.90;;;;;;5017037;28;20219;-81
2020/12/15 06:14:15;;;;;;;17.33;15.80;;;5.30;99.90;;;;;;5016735;28;20963;-81
2020/12/15 06:16:42;;;;;;;16.37;14.97;;;5.40;99.90;;;;;;5020016;28;20448;-80
2020/12/15 06:19:11;;;;;;;17.37;15.97;;;5.30;99.90;;;;;;5021314;28;21056;-80
2020/12/15 06:21:39;;;;;;;16.90;15.40;;;5.30;99.90;;;;;;5018396;28;20446;-81
2020/12/15 06:24:06;;;;;;;16.40;15.20;;;5.30;99.90;;;;;;5017832;28;20227;-81
2020/12/15 06:26:34;;;;;;;16.77;15.37;;;5.30;99.90;;;;;;5018198;28;20205;-81
2020/12/15 06:29:02;;;;;;;16.90;15.50;;;5.30;99.90;;;;;;5039085;22;20449;-81
2020/12/15 06:31:29;;;;;;;16.80;15.40;;;5.20;99.90;;;;;;5003907;28;20212;-83
2020/12/15 06:33:57;;;;;;;16.43;15.13;;;5.20;99.90;;;;;;5010995;28;20197;-82
2020/12/15 06:36:31;;;;;;;18.13;16.47;;;5.30;99.90;;;;;;5017386;28;20211;-80
2020/12/15 06:38:59;;;;;;;15.90;14.70;;;5.20;99.90;;;;;;5009017;28;20284;-80
2020/12/15 06:41:26;;;;;;;16.23;14.93;;;5.30;99.90;;;;;;4997293;28;20444;-80
2020/12/15 06:44:04;;;;;;;16.87;15.37;;;5.30;99.90;;;;;;4984702;28;20568;-80
2020/12/15 06:46:31;;;;;;;16.30;15.00;;;5.20;99.90;;;;;;4985161;28;20224;-80
2020/12/15 06:48:58;;;;;;;16.23;14.93;;;5.30;99.90;;;;;;4994134;28;20455;-79
2020/12/15 06:51:29;;;;;;;16.13;14.83;;;5.30;99.90;;;;;;4980822;28;20496;-80
2020/12/15 06:54:02;;;;;;;16.67;15.30;;;5.30;99.90;;;;;;4987894;28;20910;-81
2020/12/15 06:56:29;;;;;;;16.97;15.60;;;5.30;99.90;;;;;;5011773;28;20201;-81
2020/12/15 06:59:02;;;;;;;16.43;15.00;;;5.30;99.90;;;;;;5000728;28;20208;-80
2020/12/15 07:01:29;;;;;;;16.27;14.97;;;5.30;99.90;;;;;;4995375;28;20946;-80
2020/12/15 07:03:57;;;;;;;16.77;15.43;;;5.30;99.90;;;;;;4994661;28;20208;-80
2020/12/15 07:06:24;;;;;;;16.97;15.53;;;5.30;99.90;;;;;;4988108;28;20197;-80
2020/12/15 07:08:58;;;;;;;15.77;14.47;;;5.30;99.90;;;;;;4992263;28;20669;-80
2020/12/15 07:11:25;;;;;;;16.13;14.87;;;5.30;99.90;;;;;;5000440;28;20870;-80
2020/12/15 07:14:00;;;;;;;16.17;14.87;;;5.30;99.90;;;;;;4996190;28;20995;-80
2020/12/15 07:16:27;;;;;;;16.47;15.07;;;5.30;99.90;;;;;;4994363;28;20534;-80
2020/12/15 07:18:54;;;;;;;17.73;16.03;;;5.30;99.90;;;;;;4988485;28;20209;-81
2020/12/15 07:21:23;;;;;;;16.43;15.10;;;5.40;99.90;;;;;;4995608;28;20208;-80
2020/12/15 07:23:49;;;;;;;16.93;15.43;;;5.40;99.90;;;;;;5002261;28;20472;-81
2020/12/15 07:26:17;;;;;;;16.50;15.10;;;5.40;99.90;;;;;;4986162;28;20461;-80
2020/12/15 07:28:45;;;;;;;16.70;15.40;;;5.50;99.90;;;;;;4989820;28;20259;-80
2020/12/15 07:31:13;;;;;;;15.70;14.50;;;5.50;99.90;;;;;;4993688;28;20551;-80
2020/12/15 07:33:41;;;;;;;17.27;15.83;;;5.50;99.90;;;;;;4994497;28;20444;-80
2020/12/15 07:36:16;;;;;;;16.60;15.23;;;5.50;99.90;;;;;;4996170;28;20680;-79
2020/12/15 07:38:44;;;;;;;16.43;15.13;;;5.50;99.90;;;;;;4995329;28;20456;-80
2020/12/15 07:41:15;;;;;;;16.50;15.30;;;5.60;99.90;;;;;;4991895;28;20205;-79
2020/12/15 07:43:52;;;;;;;16.60;15.03;;;5.50;99.90;;;;;;4994323;28;20456;-81
2020/12/15 07:46:23;;;;;;;15.97;14.77;;;5.60;99.90;;;;;;4994204;28;20193;-81
2020/12/15 07:48:49;;;;;;;16.03;14.63;;;5.60;99.90;;;;;;4998033;28;20816;-80
2020/12/15 07:51:16;;;;;;;15.10;13.90;;;5.60;99.90;;;;;;5004048;28;20322;-80
2020/12/15 07:53:50;;;;;;;16.00;14.70;;;5.60;99.90;;;;;;4990705;28;20208;-81
2020/12/15 07:56:16;;;;;;;15.13;13.83;;;5.60;99.90;;;;;;4997430;28;20448;-81
2020/12/15 07:58:45;;;;;;;15.67;14.27;;;5.70;99.90;;;;;;5000591;28;20461;-80
2020/12/15 08:01:12;;;;;;;15.70;14.40;;;5.60;99.90;;;;;;4993275;28;20442;-81
2020/12/15 08:03:39;;;;;;;15.70;14.50;;;5.70;99.90;;;;;;4999536;28;20452;-81
2020/12/15 08:06:10;;;;;;;16.20;14.90;;;5.70;99.90;;;;;;4996163;28;20666;-81
2020/12/15 08:08:37;;;;;;;14.73;13.53;;;5.70;99.90;;;;;;5006797;28;20197;-81
2020/12/15 08:11:03;;;;;;;16.20;14.80;;;5.80;99.90;;;;;;5002688;28;20225;-81
2020/12/15 08:13:30;;;;;;;15.67;14.47;;;5.80;99.90;;;;;;4994539;28;20198;-81
2020/12/15 08:15:56;;;;;;;15.37;14.13;;;5.80;99.90;;;;;;4995068;28;20574;-80
2020/12/15 08:18:23;;;;;;;15.47;14.17;;;5.90;99.90;;;;;;4990974;28;20433;-80
2020/12/15 08:21:00;;;;;;;15.73;14.53;;;5.90;99.90;;;;;;5007246;28;20509;-81
2020/12/15 08:23:27;;;;;;;15.30;13.90;;;6.00;99.90;;;;;;5000712;28;20197;-80
2020/12/15 08:25:56;;;;;;;14.87;13.77;;;6.00;99.90;;;;;;4993332;28;20255;-81
2020/12/15 08:28:24;;;;;;;14.53;13.40;;;6.00;99.90;;;;;;4994766;28;20662;-80
2020/12/15 08:30:51;;;;;;;16.10;14.90;;;6.10;99.90;;;;;;4996266;28;20224;-81
2020/12/15 08:33:22;;;;;;;15.43;14.17;;;6.10;99.90;;;;;;4997607;28;20197;-80
2020/12/15 08:35:49;;;;;;;15.40;14.10;;;6.20;99.90;;;;;;4999958;28;20612;-80
2020/12/15 08:38:16;;;;;;;14.77;13.57;;;6.20;99.90;;;;;;4989105;28;20674;-81
2020/12/15 08:40:44;;;;;;;14.43;13.13;;;6.20;99.90;;;;;;4997330;28;20457;-81
2020/12/15 08:43:10;;;;;;;15.07;13.90;;;6.30;99.90;;;;;;4993760;28;20202;-80
2020/12/15 08:45:37;;;;;;;15.60;14.40;;;6.30;99.90;;;;;;4997378;28;20236;-80
2020/12/15 08:48:03;;;;;;;14.33;13.33;;;6.40;99.90;;;;;;5000379;28;20193;-81
2020/12/15 08:50:31;;;;;;;13.60;12.60;;;6.40;99.90;;;;;;4987789;28;20256;-80
2020/12/15 08:53:05;;;;;;;14.70;13.50;;;6.50;99.90;;;;;;4995908;28;20208;-80
2020/12/15 08:55:33;;;;;;;13.87;12.70;;;6.50;99.90;;;;;;4995412;28;20197;-81
2020/12/15 08:58:00;;;;;;;13.57;12.57;;;6.50;99.90;;;;;;4997366;28;20193;-81
2020/12/15 09:00:28;;;;;;;15.10;13.80;;;6.50;99.90;;;;;;5008777;28;20275;-81
2020/12/15 09:03:07;;;;;;;14.33;13.23;;;6.60;99.90;;;;;;5002075;28;20685;-81
2020/12/15 09:05:44;;;;;;;14.37;13.27;;;6.70;99.90;;;;;;4988789;28;20205;-82
2020/12/15 09:08:11;;;;;;;14.60;13.50;;;6.70;99.90;;;;;;4993761;28;20204;-80
2020/12/15 09:10:38;;;;;;;16.43;15.03;;;6.70;99.90;;;;;;4988655;28;20213;-80
2020/12/15 09:13:05;;;;;;;14.13;13.13;;;6.70;99.90;;;;;;4995398;28;20564;-81
2020/12/15 09:15:31;;;;;;;15.50;14.20;;;6.80;99.90;;;;;;4997850;28;20256;-81
2020/12/15 09:17:57;;;;;;;15.60;14.40;;;6.80;99.90;;;;;;4997544;28;20200;-81
2020/12/15 09:20:25;;;;;;;15.10;14.00;;;6.80;99.90;;;;;;4989861;28;20229;-80
2020/12/15 09:22:51;;;;;;;14.80;13.60;;;6.90;99.90;;;;;;5006438;28;20292;-80
2020/12/15 09:25:19;;;;;;;14.17;13.17;;;7.00;99.90;;;;;;4986516;28;20229;-81
2020/12/15 09:27:47;;;;;;;14.20;13.10;;;7.00;99.90;;;;;;4995038;28;20209;-80
2020/12/15 09:30:14;;;;;;;14.90;13.70;;;7.10;99.90;;;;;;4996695;28;20252;-81
2020/12/15 09:32:42;;;;;;;14.33;13.33;;;7.10;99.90;;;;;;4986781;28;20204;-81
2020/12/15 09:35:09;;;;;;;14.70;13.60;;;7.20;99.90;;;;;;5004721;28;20240;-81
2020/12/15 09:37:36;;;;;;;14.93;13.90;;;7.20;99.90;;;;;;4992349;28;20197;-81
2020/12/15 09:40:04;;;;;;;14.97;13.87;;;7.30;99.90;;;;;;4992703;28;20269;-80
2020/12/15 09:42:32;;;;;;;15.40;14.13;;;7.30;99.90;;;;;;4987561;28;20309;-80
2020/12/15 09:44:59;;;;;;;15.70;14.50;;;7.40;99.90;;;;;;4977906;28;20229;-81
2020/12/15 09:47:25;;;;;;;16.13;15.00;;;7.40;99.90;;;;;;4974561;28;20201;-81
2020/12/15 09:49:52;;;;;;;15.97;14.70;;;7.40;99.90;;;;;;4991239;28;20728;-80
2020/12/15 09:52:18;;;;;;;14.90;13.90;;;7.40;99.90;;;;;;4996384;28;20221;-81
2020/12/15 09:54:44;;;;;;;16.40;15.20;;;7.40;99.90;;;;;;4994875;28;20206;-81
2020/12/15 09:57:10;;;;;;;15.97;14.70;;;7.50;99.90;;;;;;4988065;28;20576;-81
2020/12/15 09:59:37;;;;;;;16.10;14.80;;;7.50;99.90;;;;;;4986761;28;20221;-81
2020/12/15 10:02:04;;;;;;;16.17;14.97;;;7.60;99.90;;;;;;4993999;28;20282;-80
2020/12/15 10:04:31;;;;;;;16.43;15.23;;;7.60;99.90;;;;;;4991516;28;20229;-81
2020/12/15 10:06:57;;;;;;;18.53;17.03;;;7.60;99.90;;;;;;4992436;28;20242;-81
2020/12/15 10:09:23;;;;;;;18.87;17.30;;;7.60;99.90;;;;;;5003251;28;20232;-80
2020/12/15 10:11:50;;;;;;;17.47;16.17;;;7.70;99.90;;;;;;4988473;28;20222;-81
2020/12/15 10:14:16;;;;;;;18.10;16.47;;;7.80;99.90;;;;;;5000278;28;20229;-80
2020/12/15 10:16:43;;;;;;;17.43;16.13;;;7.90;99.90;;;;;;4985962;28;20202;-81
2020/12/15 10:19:11;;;;;;;17.77;16.37;;;8.00;99.90;;;;;;4993166;28;20722;-81
2020/12/15 10:21:37;;;;;;;17.30;16.00;;;8.10;99.90;;;;;;4993299;28;20198;-81
2020/12/15 10:24:04;;;;;;;18.07;16.67;;;8.30;99.90;;;;;;4991952;28;20209;-80
2020/12/15 10:26:31;;;;;;;17.80;16.20;;;8.30;99.90;;;;;;4993103;28;20207;-81
2020/12/15 10:28:57;;;;;;;17.90;16.60;;;8.40;99.90;;;;;;4987380;28;20218;-81
2020/12/15 10:31:24;;;;;;;17.33;15.93;;;8.60;99.90;;;;;;4982629;28;20662;-81
2020/12/15 10:33:51;;;;;;;17.43;16.07;;;8.70;99.90;;;;;;4996944;28;20584;-81
2020/12/15 10:36:18;;;;;;;16.60;15.37;;;8.80;99.90;;;;;;4988374;28;20324;-81
2020/12/15 10:38:45;;;;;;;16.43;14.93;;;8.90;99.90;;;;;;5000161;28;20210;-82
2020/12/15 10:41:11;;;;;;;17.43;16.20;;;8.90;99.90;;;;;;4988132;28;20219;-81
2020/12/15 10:43:38;;;;;;;16.50;15.20;;;8.80;99.90;;;;;;4995672;28;20243;-81
2020/12/15 10:46:04;;;;;;;17.63;16.23;;;8.80;99.90;;;;;;5000029;28;20211;-81
2020/12/15 10:48:31;;;;;;;16.87;15.67;;;8.80;99.90;;;;;;4989788;28;20581;-80
2020/12/15 10:50:58;;;;;;;16.70;15.33;;;8.80;99.90;;;;;;4996673;28;20204;-81
2020/12/15 10:53:24;;;;;;;16.00;14.90;;;8.80;99.90;;;;;;4991175;28;20210;-81
2020/12/15 10:55:51;;;;;;;16.50;15.30;;;8.90;99.90;;;;;;4994445;28;20208;-81
2020/12/15 10:58:18;;;;;;;16.07;14.80;;;8.90;99.90;;;;;;4998353;28;20334;-80
2020/12/15 11:00:45;;;;;;;16.63;15.23;;;8.90;99.90;;;;;;5001299;28;20270;-81
2020/12/15 11:03:12;;;;;;;16.10;14.90;;;9.00;99.90;;;;;;4997821;28;20262;-81
2020/12/15 11:05:38;;;;;;;16.43;15.17;;;9.10;99.90;;;;;;4994771;28;20216;-81
2020/12/15 11:08:05;;;;;;;16.07;14.97;;;9.10;99.90;;;;;;4996214;28;20198;-81
2020/12/15 11:10:32;;;;;;;15.70;14.60;;;9.20;99.90;;;;;;5004657;28;20711;-81
2020/12/15 11:13:00;;;;;;;15.77;14.60;;;9.30;99.90;;;;;;5004250;28;20252;-80
2020/12/15 11:15:28;;;;;;;15.67;14.57;;;9.50;99.90;;;;;;4998120;28;20204;-81
2020/12/15 11:17:54;;;;;;;15.90;14.70;;;9.60;99.90;;;;;;5006287;28;20255;-81
2020/12/15 11:20:21;;;;;;;14.83;13.77;;;9.70;99.90;;;;;;4997695;28;20632;-81
2020/12/15 11:22:48;;;;;;;15.97;14.77;;;9.80;99.90;;;;;;4996761;28;20201;-81
2020/12/15 11:25:17;;;;;;;15.30;14.30;;;9.90;99.90;;;;;;5003447;28;20284;-81
2020/12/15 11:27:44;;;;;;;15.53;14.43;;;10.00;99.90;;;;;;4991858;28;20201;-81
2020/12/15 11:30:11;;;;;;;15.57;14.47;;;10.00;99.90;;;;;;5001356;28;20233;-81
2020/12/15 11:32:38;;;;;;;14.93;13.93;;;10.10;99.90;;;;;;4992237;28;20741;-82
2020/12/15 11:35:04;;;;;;;14.50;13.50;;;10.20;99.90;;;;;;4999776;28;20205;-82
2020/12/15 11:37:30;;;;;;;14.53;13.53;;;10.20;99.90;;;;;;4998425;28;20209;-81
2020/12/15 11:39:57;;;;;;;14.97;13.77;;;10.30;99.90;;;;;;4995996;28;20232;-81
2020/12/15 11:42:24;;;;;;;14.53;13.53;;;10.30;99.90;;;;;;5007088;28;20201;-80
2020/12/15 11:44:50;;;;;;;15.30;14.20;;;10.30;99.90;;;;;;5004626;28;20570;-81
2020/12/15 11:47:16;;;;;;;15.97;14.77;;;10.40;99.90;;;;;;4994192;28;20205;-81
2020/12/15 11:49:43;;;;;;;16.50;15.20;;;10.40;99.90;;;;;;4994623;28;20214;-81
2020/12/15 11:52:10;;;;;;;15.20;14.20;;;10.40;99.90;;;;;;4998026;28;20272;-81
2020/12/15 11:54:39;;;;;;;15.80;14.70;;;10.30;99.90;;;;;;4997856;28;20213;-81
2020/12/15 11:57:06;;;;;;;15.27;14.17;;;10.30;99.90;;;;;;5000111;28;20205;-81
2020/12/15 11:59:33;;;;;;;15.27;14.27;;;10.40;99.90;;;;;;4994175;28;20221;-81
2020/12/15 12:01:59;;;;;;;15.27;14.27;;;10.40;99.90;;;;;;4990838;28;20607;-81
2020/12/15 12:04:25;;;;;;;15.30;14.30;;;10.50;99.90;;;;;;4997159;28;20208;-81
2020/12/15 12:06:52;;;;;;;15.37;14.37;;;10.50;99.90;;;;;;5000578;28;20198;-81
2020/12/15 12:09:18;;;;;;;15.53;14.33;;;10.40;99.90;;;;;;4996191;28;20348;-81
2020/12/15 12:11:44;;;;;;;15.17;14.17;;;10.40;99.90;;;;;;4996154;28;20221;-81
2020/12/15 12:14:10;;;;;;;15.90;14.80;;;10.40;99.90;;;;;;5011202;28;20209;-81
2020/12/15 12:16:38;;;;;;;15.60;14.60;;;10.30;99.90;;;;;;4997677;28;20213;-81
2020/12/15 12:19:04;;;;;;;15.83;14.70;;;10.30;99.90;;;;;;5006366;28;20209;-81
2020/12/15 12:21:33;;;;;;;16.30;15.27;;;10.20;99.90;;;;;;5001104;28;20209;-81
2020/12/15 12:23:59;;;;;;;16.10;15.00;;;10.20;99.90;;;;;;4992288;28;20196;-81
2020/12/15 12:26:26;;;;;;;15.40;14.30;;;10.20;99.90;;;;;;4988124;28;20197;-80
2020/12/15 12:28:53;;;;;;;15.60;14.50;;;10.20;99.90;;;;;;4994327;28;20205;-83
2020/12/15 12:31:19;;;;;;;15.27;14.27;;;10.20;99.90;;;;;;5000602;23;20233;-81
2020/12/15 12:33:46;;;;;;;14.80;13.80;;;10.20;99.90;;;;;;4989614;28;20189;-82
2020/12/15 12:36:13;;;;;;;15.57;14.57;;;10.30;99.90;;;;;;4980766;28;20586;-82
2020/12/15 12:38:39;;;;;;;14.97;13.97;;;10.40;99.90;;;;;;4993366;28;20219;-82
2020/12/15 12:41:05;;;;;;;15.33;14.33;;;10.40;99.90;;;;;;4986520;28;20216;-82
2020/12/15 12:43:31;;;;;;;14.93;13.93;;;10.40;99.90;;;;;;4985088;28;20566;-81
2020/12/15 12:45:58;;;;;;;15.67;14.60;;;10.40;99.90;;;;;;4994676;28;20193;-82